createdAt,value
2022-11-01T00:01:52.644Z,33.40
2022-11-01T00:04:20.474Z,40.20
2022-11-01T00:06:48.804Z,44.87
2022-11-01T00:09:17.428Z,44.97
2022-11-01T00:11:45.025Z,36.50
2022-11-01T00:14:17.412Z,45.20
2022-11-01T00:16:45.107Z,42.10
2022-11-01T00:19:14.294Z,35.60
2022-11-01T00:21:41.657Z,46.57
2022-11-01T00:24:09.198Z,39.97
2022-11-01T00:26:36.571Z,40.83
2022-11-01T00:29:04.008Z,47.57
2022-11-01T00:31:31.564Z,40.37
2022-11-01T00:34:01.253Z,45.13
2022-11-01T00:36:28.645Z,48.03
2022-11-01T00:38:55.955Z,55.77
2022-11-01T00:41:23.293Z,44.70
2022-11-01T00:43:50.950Z,41.57
2022-11-01T00:46:19.074Z,42.63
2022-11-01T00:48:46.681Z,47.33
2022-11-01T00:51:14.118Z,49.53
2022-11-01T00:53:41.663Z,47.13
2022-11-01T00:56:09.522Z,50.47
2022-11-01T00:58:37.005Z,55.40
2022-11-01T01:01:04.479Z,61.40
2022-11-01T01:03:31.907Z,45.23
2022-11-01T01:05:59.626Z,44.67
2022-11-01T01:08:27.491Z,51.10
2022-11-01T01:10:55.081Z,53.83
2022-11-01T01:13:23.254Z,52.50
2022-11-01T01:15:50.534Z,58.37
2022-11-01T01:18:17.878Z,64.40
2022-11-01T01:20:45.648Z,61.20
2022-11-01T01:23:13.485Z,57.83
2022-11-01T01:25:42.118Z,70.90
2022-11-01T01:28:10.451Z,58.87
2022-11-01T01:30:41.566Z,63.53
2022-11-01T01:33:09.781Z,56.30
2022-11-01T01:35:38.593Z,63.37
2022-11-01T01:38:06.942Z,62.37
2022-11-01T01:40:35.281Z,66.20
2022-11-01T01:43:02.677Z,66.30
2022-11-01T01:45:31.848Z,66.60
2022-11-01T01:48:08.178Z,82.20
2022-11-01T01:50:50.860Z,70.53
2022-11-01T01:53:21.377Z,63.43
2022-11-01T01:56:00.107Z,66.60
2022-11-01T01:58:38.893Z,62.80
2022-11-01T02:01:06.507Z,67.10
2022-11-01T02:03:35.585Z,65.40
2022-11-01T02:06:06.737Z,62.40
2022-11-01T02:08:35.829Z,67.10
2022-11-01T02:11:05.949Z,76.73
2022-11-01T02:13:33.691Z,67.23
2022-11-01T02:16:26.306Z,71.33
2022-11-01T02:19:31.773Z,68.50
2022-11-01T02:22:14.759Z,64.30
2022-11-01T02:25:03.440Z,75.60
2022-11-01T02:27:40.416Z,65.70
2022-11-01T02:30:20.023Z,69.57
2022-11-01T02:33:25.873Z,69.73
2022-11-01T02:36:07.757Z,65.70
2022-11-01T02:38:43.773Z,65.40
2022-11-01T02:41:27.796Z,83.23
2022-11-01T02:44:00.224Z,61.07
2022-11-01T02:46:50.811Z,57.30
2022-11-01T02:49:21.302Z,70.10
2022-11-01T02:51:50.194Z,70.10
2022-11-01T02:54:26.947Z,73.90
2022-11-01T02:56:55.248Z,68.47
2022-11-01T02:59:28.100Z,72.07
2022-11-01T03:02:19.556Z,70.20
2022-11-01T03:04:47.774Z,70.80
2022-11-01T03:07:16.936Z,62.83
2022-11-01T03:09:45.428Z,63.77
2022-11-01T03:12:25.456Z,65.53
2022-11-01T03:14:59.776Z,55.70
2022-11-01T03:18:02.300Z,70.03
2022-11-01T03:20:48.952Z,54.90
2022-11-01T03:23:23.299Z,61.80
2022-11-01T03:25:55.467Z,62.23
2022-11-01T03:28:33.154Z,58.10
2022-11-01T03:31:07.430Z,60.20
2022-11-01T03:33:42.415Z,61.80
2022-11-01T03:36:14.891Z,64.07
2022-11-01T03:38:48.988Z,58.37
2022-11-01T03:41:18.265Z,55.90
2022-11-01T03:43:47.302Z,48.37
2022-11-01T03:46:15.739Z,49.37
2022-11-01T03:48:43.154Z,55.97
2022-11-01T03:51:10.416Z,48.87
2022-11-01T03:53:37.923Z,50.60
2022-11-01T03:56:05.337Z,49.60
2022-11-01T03:58:42.082Z,51.63
2022-11-01T04:01:10.247Z,47.97
2022-11-01T04:03:38.094Z,48.77
2022-11-01T04:06:06.739Z,47.57
2022-11-01T04:08:34.927Z,59.10
2022-11-01T04:11:02.672Z,51.00
2022-11-01T04:13:29.857Z,46.93
2022-11-01T04:16:17.028Z,46.40
2022-11-01T04:19:02.976Z,54.33
2022-11-01T04:21:31.511Z,45.37
2022-11-01T04:23:59.140Z,51.97
2022-11-01T04:26:26.671Z,44.93
2022-11-01T04:28:57.224Z,46.00
2022-11-01T04:31:31.219Z,41.27
2022-11-01T04:33:59.867Z,45.50
2022-11-01T04:36:27.320Z,41.87
2022-11-01T04:38:56.148Z,42.27
2022-11-01T04:41:25.215Z,41.73
2022-11-01T04:43:56.001Z,41.87
2022-11-01T04:46:23.210Z,38.87
2022-11-01T04:48:50.441Z,43.60
2022-11-01T04:51:18.095Z,35.97
2022-11-01T04:53:45.288Z,35.63
2022-11-01T04:56:13.491Z,40.77
2022-11-01T04:58:44.941Z,34.93
2022-11-01T05:01:14.711Z,36.47
2022-11-01T05:03:43.210Z,35.30
2022-11-01T05:06:10.568Z,36.63
2022-11-01T05:08:37.899Z,34.63
2022-11-01T05:11:05.306Z,31.43
2022-11-01T05:13:32.577Z,33.43
2022-11-01T05:16:18.840Z,33.57
2022-11-01T05:18:47.105Z,37.40
2022-11-01T05:21:14.261Z,34.57
2022-11-01T05:23:41.400Z,33.13
2022-11-01T05:26:08.583Z,31.30
2022-11-01T05:28:35.741Z,30.70
2022-11-01T05:31:02.899Z,32.23
2022-11-01T05:33:30.035Z,29.20
2022-11-01T05:36:00.660Z,30.37
2022-11-01T05:38:27.820Z,31.50
2022-11-01T05:40:55.196Z,28.67
2022-11-01T05:43:22.423Z,29.53
2022-11-01T05:45:49.574Z,28.60
2022-11-01T05:48:16.730Z,32.77
2022-11-01T05:50:44.648Z,31.23
2022-11-01T05:53:11.847Z,31.40
2022-11-01T05:55:39.335Z,29.40
2022-11-01T05:58:06.976Z,30.87
2022-11-01T06:00:34.730Z,27.07
2022-11-01T06:03:02.745Z,29.40
2022-11-01T06:05:30.730Z,28.33
2022-11-01T06:08:00.366Z,26.37
2022-11-01T06:10:28.129Z,26.27
2022-11-01T06:12:55.381Z,30.10
2022-11-01T06:15:23.434Z,26.57
2022-11-01T06:18:00.484Z,28.37
2022-11-01T06:20:29.622Z,24.57
2022-11-01T06:22:58.130Z,25.23
2022-11-01T06:25:27.174Z,25.07
2022-11-01T06:27:54.707Z,21.47
2022-11-01T06:30:22.042Z,24.40
2022-11-01T06:32:49.216Z,25.60
2022-11-01T06:35:16.723Z,22.50
2022-11-01T06:37:43.909Z,22.53
2022-11-01T06:40:12.913Z,20.27
2022-11-01T06:42:46.589Z,21.63
2022-11-01T06:45:14.496Z,20.13
2022-11-01T06:47:46.367Z,24.47
2022-11-01T06:50:13.741Z,22.80
2022-11-01T06:52:40.885Z,20.73
2022-11-01T06:55:08.398Z,18.27
2022-11-01T06:57:35.616Z,18.70
2022-11-01T07:00:03.711Z,20.17
2022-11-01T07:02:31.812Z,20.67
2022-11-01T07:04:59.284Z,20.20
2022-11-01T07:07:26.585Z,22.23
2022-11-01T07:09:53.771Z,21.20
2022-11-01T07:12:21.273Z,19.43
2022-11-01T07:14:48.415Z,19.70
2022-11-01T07:17:15.555Z,24.43
2022-11-01T07:19:42.791Z,18.93
2022-11-01T07:22:09.967Z,19.67
2022-11-01T07:24:37.541Z,23.37
2022-11-01T07:27:04.696Z,20.30
2022-11-01T07:29:31.908Z,18.27
2022-11-01T07:32:00.276Z,21.00
2022-11-01T07:34:27.416Z,15.37
2022-11-01T07:36:54.775Z,18.97
2022-11-01T07:39:22.102Z,15.50
2022-11-01T07:41:51.177Z,14.43
2022-11-01T07:44:18.339Z,15.43
2022-11-01T07:46:45.610Z,17.97
2022-11-01T07:49:12.988Z,15.10
2022-11-01T07:51:40.560Z,14.73
2022-11-01T07:54:07.724Z,13.23
2022-11-01T07:56:35.132Z,16.60
2022-11-01T07:59:02.661Z,18.10
2022-11-01T08:01:29.948Z,14.87
2022-11-01T08:03:57.189Z,12.50
2022-11-01T08:06:24.585Z,12.80
2022-11-01T08:08:51.726Z,14.03
2022-11-01T08:11:18.879Z,12.30
2022-11-01T08:13:46.877Z,14.33
2022-11-01T08:16:17.963Z,16.40
2022-11-01T08:18:45.201Z,12.00
2022-11-01T08:21:18.427Z,10.10
2022-11-01T08:23:46.257Z,8.83
2022-11-01T08:26:14.121Z,12.07
2022-11-01T08:28:41.654Z,14.40
2022-11-01T08:31:10.156Z,10.53
2022-11-01T08:33:37.303Z,16.07
2022-11-01T08:36:04.812Z,10.60
2022-11-01T08:38:32.273Z,8.40
2022-11-01T08:40:59.839Z,9.87
2022-11-01T08:43:27.030Z,12.90
2022-11-01T08:45:54.157Z,9.00
2022-11-01T08:48:21.286Z,9.80
2022-11-01T08:50:49.434Z,10.00
2022-11-01T08:53:16.653Z,8.70
2022-11-01T08:55:43.924Z,12.60
2022-11-01T08:58:11.379Z,8.20
2022-11-01T09:00:38.546Z,11.60
2022-11-01T09:03:05.727Z,8.90
2022-11-01T09:05:32.949Z,7.43
2022-11-01T09:08:01.540Z,9.23
2022-11-01T09:10:30.684Z,10.10
2022-11-01T09:13:02.078Z,7.43
2022-11-01T09:15:30.274Z,6.73
2022-11-01T09:17:57.531Z,7.33
2022-11-01T09:20:24.726Z,10.97
2022-11-01T09:22:52.483Z,6.53
2022-11-01T09:25:19.932Z,6.63
2022-11-01T09:27:47.097Z,6.90
2022-11-01T09:30:14.477Z,8.40
2022-11-01T09:32:41.660Z,8.40
2022-11-01T09:35:09.285Z,6.80
2022-11-01T09:37:36.540Z,7.13
2022-11-01T09:40:04.358Z,10.20
2022-11-01T09:42:40.104Z,10.13
2022-11-01T09:45:23.151Z,8.80
2022-11-01T09:47:55.928Z,8.90
2022-11-01T09:50:49.555Z,6.63
2022-11-01T09:53:24.128Z,6.30
2022-11-01T09:56:09.938Z,12.83
2022-11-01T09:59:03.727Z,8.50
2022-11-01T10:01:55.151Z,6.00
2022-11-01T10:05:03.110Z,7.57
2022-11-01T10:07:42.840Z,8.37
2022-11-01T10:10:18.753Z,7.40
2022-11-01T10:12:59.245Z,5.63
2022-11-01T10:15:35.971Z,5.47
2022-11-01T10:18:17.182Z,6.40
2022-11-01T10:20:44.829Z,7.07
2022-11-01T10:23:17.440Z,7.77
2022-11-01T10:25:52.779Z,4.40
2022-11-01T10:28:25.979Z,4.90
2022-11-01T10:31:02.394Z,3.00
2022-11-01T10:33:47.072Z,3.57
2022-11-01T10:36:26.847Z,1.97
2022-11-01T10:42:19.029Z,1.93
2022-11-01T10:44:55.006Z,2.07
2022-11-01T10:47:24.120Z,2.30
2022-11-01T10:50:12.133Z,1.90
2022-11-01T10:52:52.865Z,1.57
2022-11-01T10:55:30.175Z,3.33
2022-11-01T10:58:06.601Z,3.00
2022-11-01T11:00:36.928Z,5.10
2022-11-01T11:03:19.177Z,3.13
2022-11-01T11:05:48.946Z,4.90
2022-11-01T11:08:20.285Z,3.97
2022-11-01T11:10:48.111Z,3.43
2022-11-01T11:13:20.746Z,3.60
2022-11-01T11:16:00.248Z,2.37
2022-11-01T11:18:33.887Z,3.03
2022-11-01T11:21:08.537Z,2.90
2022-11-01T11:23:42.112Z,3.73
2022-11-01T11:26:16.418Z,2.77
2022-11-01T11:28:48.789Z,4.20
2022-11-01T11:31:25.090Z,2.70
2022-11-01T11:33:57.018Z,6.20
2022-11-01T11:36:35.933Z,2.47
2022-11-01T11:39:03.775Z,6.87
2022-11-01T11:41:33.455Z,7.30
2022-11-01T11:44:00.756Z,4.93
2022-11-01T11:46:28.453Z,3.17
2022-11-01T11:49:02.868Z,3.97
2022-11-01T11:51:37.528Z,4.83
2022-11-01T11:54:08.761Z,3.23
2022-11-01T11:56:36.062Z,3.40
2022-11-01T11:59:21.928Z,4.37
2022-11-01T12:01:49.258Z,3.33
2022-11-01T12:04:19.053Z,5.30
2022-11-01T12:06:46.762Z,5.17
2022-11-01T12:09:32.811Z,4.77
2022-11-01T12:12:17.088Z,4.10
2022-11-01T12:14:44.309Z,4.10
2022-11-01T12:17:33.878Z,4.20
2022-11-01T12:20:16.011Z,3.07
2022-11-01T12:23:02.055Z,5.70
2022-11-01T12:25:29.392Z,4.97
2022-11-01T12:27:58.794Z,3.77
2022-11-01T12:30:29.818Z,5.13
2022-11-01T12:32:59.321Z,4.70
2022-11-01T12:35:34.356Z,6.70
2022-11-01T12:38:33.142Z,5.50
2022-11-01T12:41:24.001Z,3.67
2022-11-01T12:44:15.256Z,4.20
2022-11-01T12:46:51.360Z,5.30
2022-11-01T12:49:32.073Z,3.07
2022-11-01T12:52:27.113Z,3.53
2022-11-01T12:55:06.150Z,6.77
2022-11-01T12:57:34.714Z,4.70
2022-11-01T13:00:02.004Z,4.13
2022-11-01T13:02:56.480Z,4.80
2022-11-01T13:05:46.799Z,5.20
2022-11-01T13:08:49.460Z,3.20
2022-11-01T13:11:35.194Z,3.87
2022-11-01T13:14:29.588Z,3.77
2022-11-01T13:17:22.096Z,4.90
2022-11-01T13:20:39.539Z,4.53
2022-11-01T13:23:25.366Z,2.90
2022-11-01T13:26:23.179Z,3.70
2022-11-01T13:28:56.833Z,6.50
2022-11-01T13:31:37.788Z,3.10
2022-11-01T13:34:21.440Z,7.50
2022-11-01T13:36:56.776Z,9.77
2022-11-01T13:39:46.279Z,5.27
2022-11-01T13:42:16.648Z,6.30
2022-11-01T13:44:52.703Z,5.07
2022-11-01T13:47:59.877Z,5.17
2022-11-01T13:50:39.605Z,5.93
2022-11-01T13:53:32.127Z,7.57
2022-11-01T13:56:10.526Z,5.13
2022-11-01T13:58:37.683Z,7.23
2022-11-01T14:01:27.258Z,5.20
2022-11-01T14:04:16.379Z,4.90
2022-11-01T14:06:51.393Z,6.83
2022-11-01T14:09:29.528Z,6.60
2022-11-01T14:12:05.879Z,5.90
2022-11-01T14:14:32.962Z,6.23
2022-11-01T14:17:18.620Z,8.47
2022-11-01T14:19:56.720Z,7.67
2022-11-01T14:22:27.252Z,3.23
2022-11-01T14:24:56.717Z,3.67
2022-11-01T14:27:36.527Z,6.50
2022-11-01T14:30:14.536Z,3.87
2022-11-01T14:32:46.560Z,3.60
2022-11-01T14:35:23.995Z,4.53
2022-11-01T14:37:54.117Z,6.77
2022-11-01T14:40:29.135Z,4.10
2022-11-01T14:43:18.114Z,8.17
2022-11-01T14:45:48.239Z,4.20
2022-11-01T14:48:21.490Z,7.83
2022-11-01T14:51:04.773Z,3.50
2022-11-01T14:53:34.731Z,9.37
2022-11-01T14:56:14.204Z,5.17
2022-11-01T14:58:41.757Z,9.33
2022-11-01T15:01:14.675Z,6.50
2022-11-01T15:03:46.271Z,6.07
2022-11-01T15:06:28.452Z,5.87
2022-11-01T15:08:59.982Z,5.80
2022-11-01T15:11:31.071Z,4.80
2022-11-01T15:14:00.973Z,6.87
2022-11-01T15:16:30.004Z,3.53
2022-11-01T15:19:04.984Z,5.60
2022-11-01T15:21:34.319Z,4.10
2022-11-01T15:24:05.764Z,4.80
2022-11-01T15:26:33.618Z,4.80
2022-11-01T15:29:04.070Z,5.30
2022-11-01T15:31:34.199Z,6.80
2022-11-01T15:34:04.684Z,4.80
2022-11-01T15:36:39.235Z,7.60
2022-11-01T15:39:28.857Z,6.20
2022-11-01T15:41:57.448Z,5.07
2022-11-01T15:44:27.103Z,10.93
2022-11-01T15:46:59.638Z,4.80
2022-11-01T15:49:45.098Z,4.43
2022-11-01T15:52:21.829Z,4.93
2022-11-01T15:54:55.218Z,10.27
2022-11-01T15:57:26.859Z,4.70
2022-11-01T15:59:56.872Z,7.63
2022-11-01T16:02:31.395Z,6.20
2022-11-01T16:04:59.526Z,8.60
2022-11-01T16:07:30.282Z,6.50
2022-11-01T16:10:00.125Z,6.60
2022-11-01T16:12:31.931Z,6.83
2022-11-01T16:15:17.655Z,10.60
2022-11-01T16:17:44.964Z,6.10
2022-11-01T16:20:32.508Z,8.47
2022-11-01T16:23:07.396Z,10.33
2022-11-01T16:25:39.192Z,5.40
2022-11-01T16:28:40.054Z,5.80
2022-11-01T16:31:22.868Z,7.50
2022-11-01T16:33:50.487Z,4.83
2022-11-01T16:36:20.586Z,7.03
2022-11-01T16:38:50.926Z,10.53
2022-11-01T16:41:22.428Z,9.00
2022-11-01T16:43:58.206Z,11.37
2022-11-01T16:46:27.393Z,8.63
2022-11-01T16:48:56.279Z,5.97
2022-11-01T16:51:28.165Z,7.70
2022-11-01T16:53:57.924Z,5.63
2022-11-01T16:56:37.044Z,11.23
2022-11-01T16:59:28.970Z,8.23
2022-11-01T17:01:58.195Z,7.03
2022-11-01T17:04:28.456Z,9.40
2022-11-01T17:06:58.168Z,4.97
2022-11-01T17:09:30.476Z,5.03
2022-11-01T17:11:57.627Z,8.13
2022-11-01T17:14:26.117Z,7.13
2022-11-01T17:16:53.529Z,6.80
2022-11-01T17:19:29.731Z,4.37
2022-11-01T17:22:06.944Z,6.97
2022-11-01T17:24:34.556Z,8.40
2022-11-01T17:27:05.151Z,7.20
2022-11-01T17:29:33.019Z,6.30
2022-11-01T17:32:00.987Z,4.80
2022-11-01T17:34:29.421Z,5.97
2022-11-01T17:36:59.926Z,4.13
2022-11-01T17:39:28.652Z,6.67
2022-11-01T17:41:56.809Z,7.80
2022-11-01T17:44:23.987Z,9.57
2022-11-01T17:46:51.785Z,7.10
2022-11-01T17:49:23.553Z,4.87
2022-11-01T17:51:54.745Z,6.07
2022-11-01T17:54:23.424Z,8.80
2022-11-01T17:56:51.161Z,6.43
2022-11-01T17:59:19.341Z,5.17
2022-11-01T18:01:47.082Z,7.73
2022-11-01T18:04:15.624Z,5.10
2022-11-01T18:06:43.932Z,7.90
2022-11-01T18:09:22.686Z,7.10
2022-11-01T18:12:16.345Z,7.23
2022-11-01T18:14:46.759Z,4.13
2022-11-01T18:17:55.285Z,3.73
2022-11-01T18:20:23.182Z,9.47
2022-11-01T18:22:55.893Z,9.87
2022-11-01T18:25:50.284Z,4.63
2022-11-01T18:28:23.902Z,6.93
2022-11-01T18:30:59.135Z,5.80
2022-11-01T18:33:58.417Z,5.93
2022-11-01T18:37:02.690Z,4.27
2022-11-01T18:39:43.425Z,6.07
2022-11-01T18:42:11.210Z,9.40
2022-11-01T18:44:38.777Z,8.50
2022-11-01T18:47:32.293Z,7.57
2022-11-01T18:50:04.049Z,6.47
2022-11-01T18:52:33.144Z,8.73
2022-11-01T18:55:00.552Z,9.43
2022-11-01T18:57:28.857Z,6.87
2022-11-01T18:59:56.417Z,9.93
2022-11-01T19:02:28.646Z,6.70
2022-11-01T19:05:19.931Z,8.90
2022-11-01T19:08:10.149Z,7.27
2022-11-01T19:10:41.220Z,4.30
2022-11-01T19:13:28.863Z,6.03
2022-11-01T19:15:57.901Z,7.00
2022-11-01T19:18:25.463Z,4.30
2022-11-01T19:20:56.584Z,8.13
2022-11-01T19:23:38.614Z,6.70
2022-11-01T19:26:36.569Z,5.37
2022-11-01T19:29:15.177Z,8.00
2022-11-01T19:31:44.996Z,7.03
2022-11-01T19:34:20.113Z,8.70
2022-11-01T19:36:48.617Z,6.33
2022-11-01T19:39:42.534Z,11.93
2022-11-01T19:42:26.221Z,3.67
2022-11-01T19:44:58.054Z,7.67
2022-11-01T19:47:35.372Z,7.83
2022-11-01T19:50:24.083Z,6.33
2022-11-01T19:52:53.086Z,5.87
2022-11-01T19:55:41.365Z,5.40
2022-11-01T19:58:35.826Z,6.40
2022-11-01T20:01:09.773Z,3.30
2022-11-01T20:03:42.838Z,5.70
2022-11-01T20:06:19.792Z,3.77
2022-11-01T20:08:50.262Z,6.93
2022-11-01T20:11:17.620Z,4.10
2022-11-01T20:13:45.128Z,10.00
2022-11-01T20:16:13.741Z,6.23
2022-11-01T20:18:41.281Z,8.00
2022-11-01T20:21:08.653Z,4.43
2022-11-01T20:23:36.563Z,6.83
2022-11-01T20:26:05.047Z,4.23
2022-11-01T20:28:58.029Z,6.50
2022-11-01T20:31:26.323Z,9.47
2022-11-01T20:33:54.287Z,4.83
2022-11-01T20:36:22.200Z,9.77
2022-11-01T20:38:49.859Z,5.97
2022-11-01T20:41:17.136Z,4.17
2022-11-01T20:43:44.801Z,8.13
2022-11-01T20:46:12.673Z,5.73
2022-11-01T20:48:40.119Z,4.40
2022-11-01T20:51:07.431Z,9.97
2022-11-01T20:53:34.680Z,5.83
2022-11-01T20:56:02.461Z,5.97
2022-11-01T20:58:29.753Z,8.07
2022-11-01T21:00:57.731Z,4.37
2022-11-01T21:03:27.503Z,6.40
2022-11-01T21:05:54.729Z,3.73
2022-11-01T21:08:24.535Z,7.83
2022-11-01T21:10:54.917Z,7.63
2022-11-01T21:13:36.881Z,7.90
2022-11-01T21:16:13.911Z,5.80
2022-11-01T21:18:45.939Z,4.07
2022-11-01T21:21:16.275Z,6.27
2022-11-01T21:23:44.573Z,8.37
2022-11-01T21:26:28.092Z,6.73
2022-11-01T21:29:02.556Z,5.93
2022-11-01T21:31:32.973Z,4.77
2022-11-01T21:34:24.440Z,3.43
2022-11-01T21:36:52.126Z,4.33
2022-11-01T21:39:26.834Z,11.53
2022-11-01T21:42:04.253Z,5.50
2022-11-01T21:44:43.333Z,5.40
2022-11-01T21:47:21.261Z,4.97
2022-11-01T21:49:48.787Z,2.70
2022-11-01T21:52:16.652Z,5.20
2022-11-01T21:54:44.151Z,4.63
2022-11-01T21:57:12.378Z,3.90
2022-11-01T21:59:40.551Z,3.13
2022-11-01T22:02:10.975Z,5.97
2022-11-01T22:04:38.280Z,5.50
2022-11-01T22:07:07.746Z,7.87
2022-11-01T22:09:35.354Z,10.63
2022-11-01T22:12:03.353Z,4.83
2022-11-01T22:14:30.545Z,4.53
2022-11-01T22:16:57.987Z,4.37
2022-11-01T22:19:25.147Z,7.37
2022-11-01T22:21:52.377Z,4.20
2022-11-01T22:24:19.531Z,5.53
2022-11-01T22:26:46.669Z,5.20
2022-11-01T22:29:14.048Z,3.73
2022-11-01T22:31:41.193Z,2.60
2022-11-01T22:34:08.367Z,4.20
2022-11-01T22:36:36.282Z,4.73
2022-11-01T22:39:18.665Z,5.20
2022-11-01T22:41:46.265Z,3.23
2022-11-01T22:44:16.388Z,4.17
2022-11-01T22:46:56.971Z,5.90
2022-11-01T22:49:31.958Z,4.67
2022-11-01T22:52:04.363Z,4.07
2022-11-01T22:54:40.631Z,6.00
2022-11-01T22:57:24.109Z,3.10
2022-11-01T23:00:00.227Z,7.30
2022-11-01T23:02:41.150Z,5.80
2022-11-01T23:05:08.445Z,5.30
2022-11-01T23:07:39.865Z,6.33
2022-11-01T23:10:20.306Z,6.60
2022-11-01T23:13:08.205Z,4.37
2022-11-01T23:15:36.528Z,5.43
2022-11-01T23:18:15.330Z,10.77
2022-11-01T23:20:43.597Z,2.53
2022-11-01T23:23:16.660Z,3.40
2022-11-01T23:25:44.093Z,6.70
2022-11-01T23:28:13.121Z,2.60
2022-11-01T23:30:45.947Z,4.60
2022-11-01T23:33:15.207Z,7.57
2022-11-01T23:35:51.148Z,4.27
2022-11-01T23:38:22.708Z,5.90
2022-11-01T23:40:53.322Z,5.73
2022-11-01T23:43:30.563Z,6.20
2022-11-01T23:45:57.803Z,6.30
2022-11-01T23:48:25.154Z,4.90
2022-11-01T23:50:53.153Z,4.70
2022-11-01T23:53:26.527Z,6.03
2022-11-01T23:55:54.895Z,5.50
